Time;durP1;ratioP1;P1;durP2;ratioP2;P2;SDS_P1;SDS_P2;PMS_P1;PMS_P2;Temp;Humidity;BMP_temperature;BMP_pressure;BME280_temperature;BME280_humidity;BME280_pressure;Samples;Min_cycle;Max_cycle;Signal;HPM_P1;HPM_P2
2022/10/18 00:00:54;;;;;;;18.20;14.93;;;13.70;99.90;;;;;;5049391;28;20045;-62
2022/10/18 00:03:20;;;;;;;17.15;15.30;;;13.70;99.90;;;;;;5049496;28;20212;-61
2022/10/18 00:05:47;;;;;;;21.50;17.08;;;13.70;99.90;;;;;;5049014;28;20656;-62
2022/10/18 00:08:12;;;;;;;19.67;15.38;;;13.60;99.90;;;;;;5048985;28;20315;-61
2022/10/18 00:10:38;;;;;;;23.63;17.00;;;13.70;99.90;;;;;;5049221;28;20041;-61
2022/10/18 00:13:04;;;;;;;19.23;15.98;;;13.60;99.90;;;;;;5051721;28;20033;-62
2022/10/18 00:15:29;;;;;;;17.75;15.95;;;13.60;99.90;;;;;;5053022;28;20128;-63
2022/10/18 00:17:55;;;;;;;18.17;15.88;;;13.60;99.90;;;;;;5052698;28;20190;-62
2022/10/18 00:20:21;;;;;;;19.48;16.02;;;13.60;99.90;;;;;;5053022;28;20094;-62
2022/10/18 00:22:46;;;;;;;19.13;16.50;;;13.60;99.90;;;;;;5053133;28;20518;-62
2022/10/18 00:25:14;;;;;;;18.95;14.55;;;13.60;99.90;;;;;;5053543;28;20433;-62
2022/10/18 00:27:39;;;;;;;21.10;17.10;;;13.60;99.90;;;;;;5053247;28;20120;-62
2022/10/18 00:30:05;;;;;;;16.48;14.77;;;13.60;99.90;;;;;;5053484;28;20119;-61
2022/10/18 00:32:36;;;;;;;17.92;15.63;;;13.70;99.90;;;;;;5053303;28;20112;-63
2022/10/18 00:35:03;;;;;;;17.55;15.10;;;13.70;99.90;;;;;;5052716;28;20051;-63
2022/10/18 00:37:28;;;;;;;19.92;16.33;;;13.60;99.90;;;;;;5052491;28;20446;-62
2022/10/18 00:39:54;;;;;;;19.25;15.75;;;13.70;99.90;;;;;;5053217;28;20041;-61
2022/10/18 00:42:21;;;;;;;18.40;16.45;;;13.60;99.90;;;;;;5051303;28;20060;-62
2022/10/18 00:44:50;;;;;;;20.35;16.42;;;13.70;99.90;;;;;;5052354;28;20070;-62
2022/10/18 00:47:17;;;;;;;24.38;17.95;;;13.60;99.90;;;;;;5052315;28;20063;-61
2022/10/18 00:49:47;;;;;;;20.52;17.00;;;13.60;99.90;;;;;;5052618;28;20351;-61
2022/10/18 00:52:39;;;;;;;29.65;18.83;;;13.60;99.90;;;;;;5051887;28;20041;-61
2022/10/18 00:55:05;;;;;;;24.95;19.42;;;13.60;99.90;;;;;;5052693;28;20087;-62
2022/10/18 00:57:31;;;;;;;23.23;19.25;;;13.60;99.90;;;;;;5052419;28;20086;-62
2022/10/18 00:59:57;;;;;;;23.10;17.98;;;13.60;99.90;;;;;;5052529;28;20047;-62
2022/10/18 01:02:23;;;;;;;21.45;17.70;;;13.60;99.90;;;;;;5052690;28;20029;-62
2022/10/18 01:04:49;;;;;;;24.00;18.95;;;13.60;99.90;;;;;;5052534;28;20037;-62
2022/10/18 01:07:37;;;;;;;24.60;19.08;;;13.60;99.90;;;;;;5050950;28;20037;-61
2022/10/18 01:10:25;;;;;;;25.08;18.65;;;13.60;99.90;;;;;;5052395;28;20280;-61
2022/10/18 01:13:06;;;;;;;20.60;17.42;;;13.60;99.90;;;;;;5051963;28;20302;-62
2022/10/18 01:16:09;;;;;;;19.30;16.52;;;13.60;99.90;;;;;;5052243;28;20084;-61
2022/10/18 01:18:59;;;;;;;23.65;17.08;;;13.50;99.90;;;;;;5042515;28;20055;-62
2022/10/18 01:21:28;;;;;;;20.65;17.00;;;13.50;99.90;;;;;;5051804;28;20124;-62
2022/10/18 01:24:17;;;;;;;19.33;16.98;;;13.50;99.90;;;;;;5051477;28;20047;-62
2022/10/18 01:27:11;;;;;;;18.75;16.67;;;13.60;99.90;;;;;;5051245;28;20052;-62
2022/10/18 01:30:17;;;;;;;19.38;17.13;;;13.50;99.90;;;;;;5052150;28;20044;-61
2022/10/18 01:32:48;;;;;;;18.27;15.38;;;13.50;99.90;;;;;;5051947;28;20045;-62
2022/10/18 01:35:18;;;;;;;27.00;18.60;;;13.50;99.90;;;;;;5051298;28;20087;-62
2022/10/18 01:37:48;;;;;;;18.85;16.40;;;13.50;99.90;;;;;;5051508;28;20036;-61
2022/10/18 01:40:17;;;;;;;23.73;17.77;;;13.50;99.90;;;;;;5051988;28;20055;-62
2022/10/18 01:42:45;;;;;;;17.83;14.65;;;13.50;99.90;;;;;;5051614;28;20059;-62
2022/10/18 01:45:13;;;;;;;15.60;13.98;;;13.50;99.90;;;;;;5050949;28;20060;-62
2022/10/18 01:47:41;;;;;;;18.63;15.57;;;13.40;99.90;;;;;;5051041;28;20405;-62
2022/10/18 01:50:07;;;;;;;15.93;13.57;;;13.40;99.90;;;;;;5051257;28;20497;-62
2022/10/18 01:52:33;;;;;;;16.33;13.40;;;13.40;99.90;;;;;;5051650;28;20376;-60
2022/10/18 01:55:01;;;;;;;15.73;14.00;;;13.20;99.90;;;;;;5051482;28;20111;-62
2022/10/18 01:57:44;;;;;;;18.45;14.35;;;13.30;99.90;;;;;;5051382;28;20033;-61
2022/10/18 02:00:22;;;;;;;17.55;14.25;;;13.30;99.90;;;;;;5051929;28;20036;-61
2022/10/18 02:03:19;;;;;;;28.55;14.35;;;13.20;99.90;;;;;;5051535;28;20045;-61
2022/10/18 02:05:57;;;;;;;25.58;15.70;;;13.20;99.90;;;;;;5051215;28;20072;-62
2022/10/18 02:08:25;;;;;;;22.48;14.02;;;13.20;99.90;;;;;;5050813;28;20346;-61
2022/10/18 02:11:07;;;;;;;15.75;13.00;;;13.10;99.90;;;;;;5051129;28;20411;-62
2022/10/18 02:13:40;;;;;;;14.77;11.82;;;13.10;99.90;;;;;;5051427;28;20041;-62
2022/10/18 02:16:33;;;;;;;137.20;24.25;;;13.10;99.90;;;;;;5051101;28;20033;-61
2022/10/18 02:19:11;;;;;;;15.82;12.48;;;13.00;99.90;;;;;;5051009;28;20485;-62
2022/10/18 02:21:40;;;;;;;20.38;13.40;;;13.00;99.90;;;;;;5051371;28;20135;-62
2022/10/18 02:24:08;;;;;;;31.63;14.55;;;12.90;99.90;;;;;;5050838;28;20045;-62
2022/10/18 02:26:34;;;;;;;13.77;12.43;;;13.00;99.90;;;;;;5050655;28;20394;-62
2022/10/18 02:28:59;;;;;;;34.97;14.00;;;12.90;99.90;;;;;;5050382;28;20086;-63
2022/10/18 02:31:28;;;;;;;37.67;13.48;;;12.90;99.90;;;;;;5051018;28;20072;-63
2022/10/18 02:34:04;;;;;;;73.65;18.30;;;12.90;99.90;;;;;;5049715;28;20444;-62
2022/10/18 02:36:51;;;;;;;37.83;13.05;;;12.90;99.90;;;;;;5050751;28;20094;-63
2022/10/18 02:39:26;;;;;;;35.83;13.48;;;12.90;99.90;;;;;;5038395;28;20355;-61
2022/10/18 02:41:53;;;;;;;48.30;15.45;;;12.90;99.90;;;;;;5050387;28;20053;-63
2022/10/18 02:44:19;;;;;;;60.58;15.18;;;12.90;99.90;;;;;;5050808;28;20052;-62
2022/10/18 02:46:45;;;;;;;79.70;16.90;;;12.90;99.90;;;;;;5048750;28;20045;-61
2022/10/18 02:49:11;;;;;;;31.95;13.30;;;12.90;99.90;;;;;;5050484;28;20174;-62
2022/10/18 02:51:36;;;;;;;77.90;18.90;;;12.90;99.90;;;;;;5050662;28;20087;-61
2022/10/18 02:54:02;;;;;;;73.93;13.65;;;12.80;99.90;;;;;;5050116;28;20045;-61
2022/10/18 02:56:28;;;;;;;58.70;16.05;;;12.90;99.90;;;;;;5050067;28;20446;-61
2022/10/18 02:58:53;;;;;;;56.45;15.52;;;12.90;99.90;;;;;;5049885;28;20033;-61
2022/10/18 03:01:19;;;;;;;81.07;15.50;;;12.90;99.90;;;;;;5050149;28;20041;-61
2022/10/18 03:03:45;;;;;;;90.07;15.65;;;12.90;99.90;;;;;;5050114;28;20091;-63
2022/10/18 03:06:10;;;;;;;85.13;15.57;;;12.90;99.90;;;;;;5050402;28;20048;-61
2022/10/18 03:08:37;;;;;;;86.20;18.05;;;12.80;99.90;;;;;;5049943;28;20110;-63
2022/10/18 03:11:03;;;;;;;61.38;12.48;;;12.80;99.90;;;;;;5049975;28;20037;-62
2022/10/18 03:13:28;;;;;;;86.32;16.15;;;12.80;99.90;;;;;;5050294;28;20037;-62
2022/10/18 03:15:54;;;;;;;47.05;12.05;;;12.90;99.90;;;;;;5049758;28;20086;-61
2022/10/18 03:18:19;;;;;;;43.67;12.15;;;12.90;99.90;;;;;;5049990;28;20036;-63
2022/10/18 03:20:45;;;;;;;44.97;13.63;;;12.80;99.90;;;;;;5050044;28;20048;-61
2022/10/18 03:23:11;;;;;;;126.32;17.33;;;12.80;99.90;;;;;;5049813;28;20047;-61
2022/10/18 03:25:36;;;;;;;138.88;22.08;;;12.80;99.90;;;;;;5049433;28;20045;-62
2022/10/18 03:28:02;;;;;;;110.30;17.55;;;12.70;99.90;;;;;;5048905;28;20126;-63
2022/10/18 03:30:27;;;;;;;79.15;15.07;;;12.70;99.90;;;;;;5050272;28;20045;-61
2022/10/18 03:32:53;;;;;;;99.40;15.77;;;12.70;99.90;;;;;;5049654;28;20045;-62
2022/10/18 03:35:19;;;;;;;121.03;17.33;;;12.70;99.90;;;;;;5049454;28;20045;-61
2022/10/18 03:37:44;;;;;;;43.90;11.98;;;12.70;99.90;;;;;;5049223;28;20029;-61
2022/10/18 03:40:10;;;;;;;53.33;13.27;;;12.70;99.90;;;;;;5049794;28;20041;-61
2022/10/18 03:42:36;;;;;;;106.80;18.40;;;12.70;99.90;;;;;;5049425;28;20088;-62
2022/10/18 03:45:03;;;;;;;147.20;18.30;;;12.70;99.90;;;;;;5049469;28;20076;-61
2022/10/18 03:47:28;;;;;;;132.75;17.95;;;12.60;99.90;;;;;;5050885;28;20069;-61
2022/10/18 03:49:54;;;;;;;105.00;16.42;;;12.60;99.90;;;;;;5053928;28;20087;-61
2022/10/18 03:52:20;;;;;;;199.27;22.02;;;12.60;99.90;;;;;;5052932;28;20043;-61
2022/10/18 03:54:45;;;;;;;159.23;16.67;;;12.60;99.90;;;;;;5052763;28;20287;-61
2022/10/18 03:57:11;;;;;;;177.38;20.05;;;12.60;99.90;;;;;;5052604;28;20040;-61
2022/10/18 03:59:36;;;;;;;86.72;13.25;;;12.60;99.90;;;;;;5053157;28;20037;-63
2022/10/18 04:02:02;;;;;;;110.97;17.13;;;12.60;99.90;;;;;;5052050;28;20052;-67
2022/10/18 04:04:27;;;;;;;157.82;21.92;;;12.60;99.90;;;;;;5053371;28;20059;-61
2022/10/18 04:06:53;;;;;;;124.18;16.20;;;12.50;99.90;;;;;;5052317;28;20048;-61
2022/10/18 04:09:18;;;;;;;49.75;13.05;;;12.50;99.90;;;;;;5053302;28;20112;-61
2022/10/18 04:11:44;;;;;;;64.82;14.30;;;12.50;99.90;;;;;;5053472;28;20343;-61
2022/10/18 04:14:09;;;;;;;26.65;11.93;;;12.50;99.90;;;;;;5052692;28;20067;-62
2022/10/18 04:16:35;;;;;;;83.85;15.43;;;12.50;99.90;;;;;;5051738;28;20043;-62
2022/10/18 04:19:01;;;;;;;111.90;17.42;;;12.50;99.90;;;;;;5052033;28;20271;-62
2022/10/18 04:21:26;;;;;;;147.30;21.52;;;12.40;99.90;;;;;;5051696;28;20439;-61
2022/10/18 04:23:52;;;;;;;58.33;14.63;;;12.40;99.90;;;;;;5052823;28;20502;-62
2022/10/18 04:26:17;;;;;;;48.65;12.10;;;12.40;99.90;;;;;;5052747;28;20462;-61
2022/10/18 04:28:43;;;;;;;102.93;18.02;;;12.40;99.90;;;;;;5052244;28;20041;-62
2022/10/18 04:31:10;;;;;;;101.65;16.48;;;12.40;99.90;;;;;;5051708;28;20048;-62
2022/10/18 04:33:36;;;;;;;94.25;14.70;;;12.30;99.90;;;;;;5051952;28;20045;-61
2022/10/18 04:36:02;;;;;;;44.70;12.20;;;12.30;99.90;;;;;;5051270;28;20147;-61
2022/10/18 04:38:28;;;;;;;87.38;13.98;;;12.40;99.90;;;;;;5050741;28;20057;-62
2022/10/18 04:40:54;;;;;;;48.15;12.70;;;12.30;99.90;;;;;;5051582;28;20143;-61
2022/10/18 04:43:19;;;;;;;47.30;11.65;;;12.40;99.90;;;;;;5051403;28;20048;-63
2022/10/18 04:45:45;;;;;;;122.50;14.35;;;12.40;99.90;;;;;;5051121;28;20140;-62
2022/10/18 04:48:11;;;;;;;41.65;11.57;;;12.40;99.90;;;;;;5051174;28;20079;-61
2022/10/18 04:50:37;;;;;;;114.68;17.40;;;12.40;99.90;;;;;;5051806;28;20405;-61
2022/10/18 04:53:03;;;;;;;52.13;12.35;;;12.40;99.90;;;;;;5052778;28;20341;-62
2022/10/18 04:55:28;;;;;;;126.35;17.15;;;12.40;99.90;;;;;;5050764;28;20045;-62
2022/10/18 04:57:54;;;;;;;66.65;14.57;;;12.40;99.90;;;;;;5051232;28;20053;-61
2022/10/18 05:00:20;;;;;;;160.98;18.30;;;12.40;99.90;;;;;;5052346;28;20430;-63
2022/10/18 05:02:45;;;;;;;90.10;15.15;;;12.40;99.90;;;;;;5039736;28;20025;-61
2022/10/18 05:05:11;;;;;;;71.22;13.60;;;12.40;99.90;;;;;;5052186;28;20480;-62
2022/10/18 05:07:36;;;;;;;171.68;19.50;;;12.40;99.90;;;;;;5051109;28;20535;-61
2022/10/18 05:10:03;;;;;;;97.63;14.23;;;12.40;99.90;;;;;;5051227;28;20049;-62
2022/10/18 05:12:29;;;;;;;105.75;15.70;;;12.40;99.90;;;;;;5051757;28;20111;-62
2022/10/18 05:14:54;;;;;;;271.13;20.20;;;12.40;99.90;;;;;;5051074;28;20369;-61
2022/10/18 05:17:20;;;;;;;214.32;19.30;;;12.40;99.90;;;;;;5051203;28;20066;-62
2022/10/18 05:19:45;;;;;;;201.70;17.90;;;12.40;99.90;;;;;;5051985;28;20542;-62
2022/10/18 05:22:11;;;;;;;300.00;22.33;;;12.40;99.90;;;;;;5051670;28;20040;-62
2022/10/18 05:24:36;;;;;;;308.90;23.05;;;12.40;99.90;;;;;;5051855;28;20040;-64
2022/10/18 05:27:02;;;;;;;281.60;22.20;;;12.30;99.90;;;;;;5051397;28;20041;-63
2022/10/18 05:29:28;;;;;;;223.55;18.30;;;12.30;99.90;;;;;;5051786;28;20041;-62
2022/10/18 05:31:53;;;;;;;278.17;21.73;;;12.20;99.90;;;;;;5051747;28;20058;-62
2022/10/18 05:34:19;;;;;;;237.02;18.45;;;12.20;99.90;;;;;;5051211;28;20045;-63
2022/10/18 05:36:45;;;;;;;230.60;20.02;;;12.20;99.90;;;;;;5049424;28;20036;-62
2022/10/18 05:39:11;;;;;;;237.20;19.50;;;12.10;99.90;;;;;;5050833;28;20534;-63
2022/10/18 05:41:37;;;;;;;211.15;19.27;;;12.20;99.90;;;;;;5051304;28;20140;-63
2022/10/18 05:44:05;;;;;;;130.23;17.77;;;12.10;99.90;;;;;;5050902;28;20136;-63
2022/10/18 05:46:32;;;;;;;127.05;18.65;;;12.10;99.90;;;;;;5050176;28;20037;-63
2022/10/18 05:48:57;;;;;;;138.55;17.95;;;12.10;99.90;;;;;;5050837;28;20033;-63
2022/10/18 05:51:23;;;;;;;123.38;17.60;;;12.10;99.90;;;;;;5051195;28;20047;-62
2022/10/18 05:53:48;;;;;;;58.83;14.40;;;12.10;99.90;;;;;;5051212;28;20052;-62
2022/10/18 05:56:14;;;;;;;110.47;18.73;;;12.00;99.90;;;;;;5051742;28;20395;-63
2022/10/18 05:58:41;;;;;;;79.88;15.35;;;12.00;99.90;;;;;;5051453;28;20305;-62
2022/10/18 06:01:08;;;;;;;30.27;12.35;;;12.00;99.90;;;;;;5051509;28;20041;-62
2022/10/18 06:03:33;;;;;;;68.82;15.98;;;12.00;99.90;;;;;;5051491;28;20110;-62
2022/10/18 06:06:04;;;;;;;64.88;14.38;;;12.00;99.90;;;;;;5051281;28;20029;-62
2022/10/18 06:08:30;;;;;;;87.18;15.70;;;11.90;99.90;;;;;;5050971;28;20416;-64
2022/10/18 06:10:56;;;;;;;61.92;14.50;;;11.90;99.90;;;;;;5050965;28;20025;-62
2022/10/18 06:13:22;;;;;;;101.80;16.38;;;11.90;99.90;;;;;;5051577;28;20037;-63
2022/10/18 06:15:47;;;;;;;70.00;14.63;;;11.90;99.90;;;;;;5050943;28;20044;-63
2022/10/18 06:18:13;;;;;;;74.95;17.20;;;11.90;99.90;;;;;;5051235;28;20044;-63
2022/10/18 06:20:39;;;;;;;60.55;14.55;;;11.90;99.90;;;;;;5051365;28;20037;-61
2022/10/18 06:23:05;;;;;;;131.05;20.70;;;11.90;99.90;;;;;;5050968;28;20037;-62
2022/10/18 06:25:30;;;;;;;43.35;13.43;;;11.90;99.90;;;;;;5051247;28;20041;-62
2022/10/18 06:27:56;;;;;;;69.93;13.48;;;11.90;99.90;;;;;;5050683;28;20090;-62
2022/10/18 06:30:22;;;;;;;60.30;12.82;;;11.90;99.90;;;;;;5051224;28;20094;-62
2022/10/18 06:32:47;;;;;;;79.60;14.02;;;11.90;99.90;;;;;;5051177;28;20033;-62
2022/10/18 06:35:13;;;;;;;150.90;16.27;;;11.90;99.90;;;;;;5050655;28;20132;-61
2022/10/18 06:37:38;;;;;;;39.80;11.40;;;11.90;99.90;;;;;;5050492;28;20037;-62
2022/10/18 06:40:05;;;;;;;220.23;23.42;;;11.90;99.90;;;;;;5050776;28;20044;-62
2022/10/18 06:42:30;;;;;;;114.10;14.30;;;11.90;99.90;;;;;;5050277;28;20149;-62
2022/10/18 06:44:56;;;;;;;77.93;12.15;;;12.00;99.90;;;;;;5050620;28;20536;-62
2022/10/18 06:47:22;;;;;;;119.95;14.68;;;11.90;99.90;;;;;;5050329;28;20048;-61
2022/10/18 06:49:48;;;;;;;99.80;13.57;;;12.00;99.90;;;;;;5050656;28;20040;-62
2022/10/18 06:52:16;;;;;;;120.53;12.75;;;12.00;99.90;;;;;;5050750;28;20063;-61
2022/10/18 06:54:41;;;;;;;94.20;13.38;;;11.90;99.90;;;;;;5050860;28;20362;-62
2022/10/18 06:57:08;;;;;;;95.90;14.38;;;11.90;99.90;;;;;;5050144;28;20465;-62
2022/10/18 06:59:33;;;;;;;42.88;10.60;;;11.80;99.90;;;;;;5050721;28;20041;-61
2022/10/18 07:01:59;;;;;;;46.95;9.18;;;11.80;99.90;;;;;;5050641;28;20033;-62
2022/10/18 07:04:28;;;;;;;32.13;8.63;;;11.80;99.90;;;;;;5050501;28;20044;-61
2022/10/18 07:06:53;;;;;;;74.35;10.15;;;11.80;99.90;;;;;;5049936;28;20072;-62
2022/10/18 07:09:19;;;;;;;54.33;8.15;;;11.80;99.90;;;;;;5049935;28;20415;-62
2022/10/18 07:11:45;;;;;;;144.40;13.88;;;11.70;99.90;;;;;;5050449;28;20127;-62
2022/10/18 07:14:10;;;;;;;68.38;8.88;;;11.80;99.90;;;;;;5050108;28;20080;-62
2022/10/18 07:16:36;;;;;;;134.45;10.95;;;11.80;99.90;;;;;;5049647;28;20041;-62
2022/10/18 07:19:01;;;;;;;139.77;13.00;;;11.80;99.90;;;;;;5050195;28;20037;-62
2022/10/18 07:21:27;;;;;;;175.48;16.23;;;11.80;99.90;;;;;;5049481;28;20033;-62
2022/10/18 07:23:53;;;;;;;57.97;8.88;;;11.90;99.90;;;;;;5050038;28;20167;-61
2022/10/18 07:26:28;;;;;;;58.40;8.30;;;11.80;99.90;;;;;;5049617;28;20036;-61
2022/10/18 07:28:57;;;;;;;65.78;9.75;;;11.90;99.90;;;;;;5050112;28;20068;-61
2022/10/18 07:31:24;;;;;;;32.35;8.02;;;11.90;99.90;;;;;;5050170;28;20178;-61
2022/10/18 07:33:50;;;;;;;39.33;9.15;;;11.90;99.90;;;;;;5049857;28;20053;-63
2022/10/18 07:36:16;;;;;;;20.42;7.05;;;11.90;99.90;;;;;;5049621;28;20067;-62
2022/10/18 07:38:41;;;;;;;16.52;6.85;;;12.00;99.90;;;;;;5049822;28;20037;-62
2022/10/18 07:41:09;;;;;;;23.25;9.02;;;12.00;99.90;;;;;;5049674;28;20084;-63
2022/10/18 07:43:35;;;;;;;13.07;7.80;;;12.10;99.90;;;;;;5050047;28;20075;-63
2022/10/18 07:46:03;;;;;;;12.00;8.90;;;12.20;99.90;;;;;;5049762;28;20049;-62
2022/10/18 07:48:29;;;;;;;19.90;8.80;;;12.20;99.90;;;;;;5049526;28;20400;-61
2022/10/18 07:51:00;;;;;;;15.40;8.75;;;12.30;99.90;;;;;;5049981;28;20040;-62
2022/10/18 07:53:27;;;;;;;8.02;7.22;;;12.30;99.90;;;;;;5049942;28;20040;-64
2022/10/18 07:56:06;;;;;;;13.20;9.38;;;12.40;99.90;;;;;;5049419;28;20041;-62
2022/10/18 07:58:33;;;;;;;12.57;11.20;;;12.50;99.90;;;;;;5049346;28;20095;-62
2022/10/18 08:01:03;;;;;;;36.65;14.27;;;12.60;99.90;;;;;;5049824;28;20086;-63
2022/10/18 08:03:29;;;;;;;34.30;18.48;;;12.60;99.90;;;;;;5049933;28;20135;-61
2022/10/18 08:05:54;;;;;;;16.80;7.07;;;12.60;99.90;;;;;;5049453;28;20037;-62
2022/10/18 08:08:21;;;;;;;11.18;6.95;;;12.70;99.90;;;;;;5048327;28;20052;-62
2022/10/18 08:10:48;;;;;;;14.90;9.63;;;12.70;99.90;;;;;;5049704;28;20079;-61
2022/10/18 08:13:14;;;;;;;12.70;7.22;;;12.80;99.90;;;;;;5048637;28;20052;-62
2022/10/18 08:15:40;;;;;;;13.35;7.47;;;12.80;99.90;;;;;;5049442;28;20450;-62
2022/10/18 08:18:06;;;;;;;17.85;7.60;;;12.90;99.90;;;;;;5049530;28;20047;-61
2022/10/18 08:20:32;;;;;;;10.63;7.03;;;12.90;99.90;;;;;;5049840;28;20037;-63
2022/10/18 08:22:58;;;;;;;11.68;7.13;;;12.90;99.90;;;;;;5049559;28;20028;-61
2022/10/18 08:25:24;;;;;;;12.02;6.85;;;12.90;99.90;;;;;;5049180;28;20041;-62
2022/10/18 08:27:49;;;;;;;14.13;7.53;;;12.90;99.90;;;;;;5049321;28;20056;-61
2022/10/18 08:30:15;;;;;;;16.80;9.70;;;13.00;99.90;;;;;;5049636;28;20051;-62
2022/10/18 08:32:40;;;;;;;11.32;8.23;;;13.00;99.90;;;;;;5050755;28;20470;-62
2022/10/18 08:35:06;;;;;;;7.93;7.20;;;13.10;99.90;;;;;;5053012;28;20045;-61
2022/10/18 08:37:32;;;;;;;9.38;7.43;;;13.00;99.90;;;;;;5052944;28;20067;-61
2022/10/18 08:39:58;;;;;;;9.15;8.00;;;13.00;99.90;;;;;;5053208;28;20567;-61
2022/10/18 08:42:41;;;;;;;13.40;9.75;;;13.10;99.90;;;;;;5052845;28;20561;-62
2022/10/18 08:45:11;;;;;;;16.13;9.83;;;13.10;99.90;;;;;;5052646;28;20060;-62
2022/10/18 08:47:40;;;;;;;19.92;10.23;;;13.20;99.90;;;;;;5052727;28;20098;-62
2022/10/18 08:50:15;;;;;;;15.68;10.52;;;13.30;99.90;;;;;;5052773;28;20051;-61
2022/10/18 08:52:50;;;;;;;15.43;11.60;;;13.40;99.90;;;;;;5039727;28;20044;-62
2022/10/18 08:55:35;;;;;;;13.85;10.27;;;13.50;99.90;;;;;;5052667;28;20080;-62
2022/10/18 08:58:30;;;;;;;;;;;13.60;99.90;;;;;;5052952;28;20045;-62
2022/10/18 09:01:26;;;;;;;10.45;8.57;;;13.60;99.90;;;;;;5043611;28;19921;-62
2022/10/18 09:04:10;;;;;;;10.93;8.32;;;13.70;99.90;;;;;;5052582;28;20052;-62
2022/10/18 09:06:54;;;;;;;9.50;7.30;;;13.90;99.90;;;;;;5052128;28;20540;-63
2022/10/18 09:09:43;;;;;;;11.45;7.03;;;13.90;99.90;;;;;;5052132;28;20040;-62
2022/10/18 09:12:24;;;;;;;9.48;5.93;;;14.10;99.90;;;;;;5052447;28;20047;-62
2022/10/18 09:15:13;;;;;;;9.05;5.30;;;14.10;99.90;;;;;;5051379;28;20141;-62
2022/10/18 09:17:58;;;;;;;12.65;5.20;;;14.20;99.90;;;;;;5048795;28;20094;-62
2022/10/18 09:20:48;;;;;;;10.05;5.05;;;14.20;99.90;;;;;;5052372;28;20029;-62
2022/10/18 09:23:22;;;;;;;9.68;4.15;;;14.30;99.90;;;;;;5038441;28;20033;-62
2022/10/18 09:26:04;;;;;;;10.35;4.43;;;14.30;99.90;;;;;;5052172;28;20033;-61
2022/10/18 09:28:46;;;;;;;10.48;4.70;;;14.40;99.90;;;;;;5040228;28;20060;-64
2022/10/18 09:31:20;;;;;;;13.18;4.90;;;14.50;99.90;;;;;;5052045;28;20048;-62
2022/10/18 09:33:57;;;;;;;14.18;4.00;;;14.60;99.90;;;;;;5052210;28;20033;-62
2022/10/18 09:36:26;;;;;;;11.45;3.88;;;14.60;99.90;;;;;;5051177;28;20051;-62
2022/10/18 09:38:58;;;;;;;12.35;4.85;;;14.70;99.90;;;;;;5051816;28;20037;-61
2022/10/18 09:41:52;;;;;;;9.43;4.18;;;14.80;99.90;;;;;;5051654;28;20438;-61
2022/10/18 09:44:32;;;;;;;12.00;4.70;;;14.80;99.90;;;;;;5050737;28;20060;-61
2022/10/18 09:47:08;;;;;;;11.65;3.75;;;14.90;99.90;;;;;;5051265;28;20370;-62
2022/10/18 09:49:45;;;;;;;10.57;3.80;;;15.00;99.90;;;;;;5051705;28;20556;-62
2022/10/18 09:52:44;;;;;;;10.25;3.63;;;15.00;99.90;;;;;;5052117;28;20045;-62
2022/10/18 09:55:23;;;;;;;11.35;4.40;;;15.00;99.90;;;;;;5051517;28;20725;-61
2022/10/18 09:57:56;;;;;;;12.70;3.55;;;15.10;99.90;;;;;;5038947;28;20091;-63
2022/10/18 10:00:33;;;;;;;10.45;3.17;;;15.20;99.90;;;;;;5051505;28;20443;-62
2022/10/18 10:03:00;;;;;;;12.10;4.45;;;15.20;99.90;;;;;;5051934;28;20441;-61
2022/10/18 10:05:26;;;;;;;11.63;3.17;;;15.30;99.90;;;;;;5051554;28;20120;-62
2022/10/18 10:07:58;;;;;;;9.15;2.13;;;15.40;99.90;;;;;;5051175;28;20124;-62
2022/10/18 10:10:26;;;;;;;12.10;2.45;;;15.40;99.90;;;;;;5051729;28;20048;-63
2022/10/18 10:13:05;;;;;;;9.98;3.00;;;15.40;99.90;;;;;;5051248;28;20394;-62
2022/10/18 10:15:32;;;;;;;12.10;2.95;;;15.50;99.90;;;;;;5051420;28;20045;-62
2022/10/18 10:18:03;;;;;;;9.45;2.40;;;15.50;99.90;;;;;;5051346;28;20033;-62
2022/10/18 10:20:40;;;;;;;14.13;3.13;;;15.50;99.90;;;;;;5051700;28;20052;-62
2022/10/18 10:23:21;;;;;;;15.57;2.53;;;15.60;99.90;;;;;;5051117;28;20041;-62
2022/10/18 10:25:52;;;;;;;10.80;2.50;;;15.60;99.90;;;;;;5051321;28;20044;-64
2022/10/18 10:28:21;;;;;;;10.20;2.30;;;15.60;99.90;;;;;;5037293;28;20111;-63
2022/10/18 10:30:47;;;;;;;10.68;2.65;;;15.70;99.90;;;;;;5051063;28;20072;-62
2022/10/18 10:33:33;;;;;;;14.10;3.00;;;15.70;99.90;;;;;;5050957;28;20072;-62
2022/10/18 10:36:00;;;;;;;9.95;3.00;;;15.70;99.90;;;;;;5050311;28;20466;-63
2022/10/18 10:38:28;;;;;;;11.68;2.45;;;15.70;99.90;;;;;;5050545;28;20051;-61
2022/10/18 10:40:55;;;;;;;9.10;2.42;;;15.70;99.90;;;;;;5050754;28;20119;-62
2022/10/18 10:43:31;;;;;;;10.20;2.60;;;15.80;99.90;;;;;;5050860;28;20558;-66
2022/10/18 10:46:17;;;;;;;13.05;2.67;;;15.80;99.90;;;;;;5050296;28;20037;-62
2022/10/18 10:48:48;;;;;;;12.13;2.75;;;15.90;99.90;;;;;;5050604;28;20041;-62
2022/10/18 10:51:37;;;;;;;10.32;2.30;;;15.80;99.90;;;;;;5050873;28;20438;-62
2022/10/18 10:54:15;;;;;;;14.07;2.25;;;15.90;99.90;;;;;;5050631;28;20111;-62
2022/10/18 10:56:57;;;;;;;11.00;2.80;;;15.90;99.90;;;;;;5049502;28;20190;-61
2022/10/18 10:59:25;;;;;;;9.73;2.30;;;16.00;99.90;;;;;;5050730;28;20123;-62
2022/10/18 11:02:33;;;;;;;11.77;2.72;;;16.00;99.90;;;;;;5050796;28;20044;-61
2022/10/18 11:05:23;;;;;;;11.20;2.40;;;16.00;99.90;;;;;;5049314;28;20382;-62
2022/10/18 11:07:54;;;;;;;10.00;2.22;;;16.00;99.90;;;;;;5049428;28;20033;-62
2022/10/18 11:10:23;;;;;;;9.45;2.38;;;16.10;99.90;;;;;;5049609;28;20045;-62
2022/10/18 11:13:17;;;;;;;7.78;1.92;;;16.10;99.90;;;;;;5050670;28;20041;-62
2022/10/18 11:15:51;;;;;;;14.23;2.45;;;16.10;99.90;;;;;;5050253;28;20102;-61
2022/10/18 11:18:37;;;;;;;9.90;2.38;;;16.10;99.90;;;;;;5050451;28;20045;-62
2022/10/18 11:21:17;;;;;;;7.22;2.03;;;16.10;99.90;;;;;;5050004;28;20036;-62
2022/10/18 11:23:44;;;;;;;10.50;2.25;;;16.10;99.90;;;;;;5050164;28;20462;-62
2022/10/18 11:26:22;;;;;;;8.90;2.40;;;16.10;99.90;;;;;;5050017;28;20081;-63
2022/10/18 11:28:47;;;;;;;11.05;2.53;;;16.10;99.90;;;;;;5050132;28;20067;-62
2022/10/18 11:31:52;;;;;;;10.48;2.00;;;16.10;99.90;;;;;;5050120;28;20041;-62
2022/10/18 11:34:23;;;;;;;10.43;2.05;;;16.10;99.90;;;;;;5035536;28;20060;-63
2022/10/18 11:37:23;;;;;;;10.13;2.22;;;16.10;99.90;;;;;;5044451;28;20176;-61
2022/10/18 11:40:00;;;;;;;10.57;1.98;;;16.10;99.90;;;;;;5049893;28;20041;-62
2022/10/18 11:43:03;;;;;;;13.38;2.28;;;16.10;99.90;;;;;;5049606;28;20374;-64
2022/10/18 11:46:14;;;;;;;9.43;2.35;;;16.20;99.90;;;;;;5049923;28;20053;-62
2022/10/18 11:48:51;;;;;;;11.27;2.20;;;16.20;99.90;;;;;;5007791;28;20054;-62
2022/10/18 11:51:46;;;;;;;11.32;2.08;;;16.20;99.90;;;;;;5037778;28;20129;-62
2022/10/18 11:54:40;;;;;;;13.55;2.97;;;16.10;99.90;;;;;;5048565;28;20354;-62
2022/10/18 11:57:17;;;;;;;8.98;2.65;;;16.10;99.90;;;;;;5049444;28;20033;-62
2022/10/18 12:00:02;;;;;;;9.68;2.40;;;16.10;99.90;;;;;;5050215;28;20132;-62
2022/10/18 12:02:52;;;;;;;9.63;1.92;;;16.10;99.90;;;;;;5049924;28;20336;-62
2022/10/18 12:05:18;;;;;;;8.98;2.60;;;16.10;99.90;;;;;;5049878;28;20125;-62
2022/10/18 12:08:07;;;;;;;11.77;2.25;;;16.20;99.90;;;;;;5051142;28;20055;-62
2022/10/18 12:10:35;;;;;;;8.95;2.13;;;16.30;99.90;;;;;;5054046;28;20120;-62
2022/10/18 12:13:06;;;;;;;10.00;1.85;;;16.20;99.90;;;;;;5053300;28;20509;-63
2022/10/18 12:15:37;;;;;;;9.20;2.15;;;16.20;99.90;;;;;;5053162;28;20509;-62
2022/10/18 12:18:10;;;;;;;7.72;1.77;;;16.20;99.90;;;;;;5053465;28;20051;-62
2022/10/18 12:20:45;;;;;;;10.05;2.38;;;16.20;99.90;;;;;;5053783;28;20048;-62
2022/10/18 12:23:24;;;;;;;9.65;2.22;;;16.30;99.90;;;;;;5053510;28;20033;-63
2022/10/18 12:25:58;;;;;;;11.02;2.30;;;16.20;99.90;;;;;;5052185;28;20103;-62
2022/10/18 12:28:39;;;;;;;10.73;2.20;;;16.20;99.90;;;;;;5040539;28;20202;-63
2022/10/18 12:31:18;;;;;;;13.15;2.15;;;16.20;99.90;;;;;;5053372;28;20124;-64
2022/10/18 12:33:47;;;;;;;13.40;2.30;;;16.20;99.90;;;;;;5053514;28;20052;-62
2022/10/18 12:36:31;;;;;;;10.27;2.00;;;16.20;99.90;;;;;;5052759;28;20044;-63
2022/10/18 12:39:00;;;;;;;10.98;2.35;;;16.30;99.90;;;;;;5052964;28;20497;-62
2022/10/18 12:41:29;;;;;;;9.88;2.15;;;16.40;99.90;;;;;;5052832;28;20068;-62
2022/10/18 12:44:33;;;;;;;12.48;2.40;;;16.50;99.90;;;;;;5053188;28;20072;-62
2022/10/18 12:47:01;;;;;;;11.85;3.17;;;16.60;99.90;;;;;;5052661;28;20132;-63
2022/10/18 12:49:30;;;;;;;9.30;2.08;;;16.70;99.90;;;;;;5053198;28;20055;-63
2022/10/18 12:52:03;;;;;;;10.93;2.22;;;16.50;99.90;;;;;;5053273;28;20048;-62